Time;durP1;ratioP1;P1;durP2;ratioP2;P2;SDS_P1;SDS_P2;PMS_P1;PMS_P2;Temp;Humidity;BMP_temperature;BMP_pressure;BME280_temperature;BME280_humidity;BME280_pressure;Samples;Min_cycle;Max_cycle;Signal;HPM_P1;HPM_P2
2021/07/31 00:01:57;;;;;;;15.03;9.73;;;;;;;16.53;85.88;94256.46;1822161;78;20963;-56
2021/07/31 00:04:24;;;;;;;12.95;9.20;;;;;;;16.52;85.96;94259.11;1822478;78;20999;-56
2021/07/31 00:06:51;;;;;;;14.07;9.45;;;;;;;16.54;85.73;94260.75;1822757;78;21322;-56
2021/07/31 00:09:18;;;;;;;12.45;9.15;;;;;;;16.52;85.61;94260.50;1822661;78;20927;-56
2021/07/31 00:11:46;;;;;;;21.17;10.38;;;;;;;16.49;85.45;94265.02;1822527;78;21025;-55
2021/07/31 00:14:13;;;;;;;14.43;11.40;;;;;;;16.49;85.42;94265.02;1822471;78;20994;-55
2021/07/31 00:16:41;;;;;;;51.55;29.45;;;;;;;16.47;85.80;94259.81;1822599;78;20966;-56
2021/07/31 00:19:08;;;;;;;20.77;14.33;;;;;;;16.43;85.90;94263.46;1822494;78;21764;-56
2021/07/31 00:21:36;;;;;;;16.70;9.70;;;;;;;16.38;85.79;94255.86;1822304;77;20987;-57
2021/07/31 00:24:05;;;;;;;17.20;9.08;;;;;;;16.32;85.58;94259.19;1822295;77;21023;-56
2021/07/31 00:26:31;;;;;;;46.55;23.15;;;;;;;16.28;85.56;94258.66;1822737;78;20986;-56
2021/07/31 00:28:58;;;;;;;70.28;33.55;;;;;;;16.26;85.48;94261.18;1822747;78;20916;-56
2021/07/31 00:31:27;;;;;;;13.85;10.25;;;;;;;16.23;85.99;94251.06;1822768;78;21155;-56
2021/07/31 00:33:54;;;;;;;22.93;16.95;;;;;;;16.15;86.32;94254.80;1815221;78;21021;-55
2021/07/31 00:36:22;;;;;;;28.07;12.07;;;;;;;16.08;86.39;94266.36;1806436;79;20978;-58
2021/07/31 00:38:50;;;;;;;15.85;8.10;;;;;;;16.01;86.27;94258.47;1806520;79;21016;-56
2021/07/31 00:41:17;;;;;;;10.45;7.75;;;;;;;15.94;86.40;94259.69;1808184;78;20978;-57
2021/07/31 00:43:44;;;;;;;17.75;8.70;;;;;;;15.90;86.48;94261.92;1820970;78;21123;-56
2021/07/31 00:46:11;;;;;;;9.80;7.80;;;;;;;15.85;86.47;94262.66;1822928;78;20919;-56
2021/07/31 00:48:41;;;;;;;11.45;8.05;;;;;;;15.80;86.29;94252.89;1822933;78;20950;-56
2021/07/31 00:51:10;;;;;;;12.23;7.58;;;;;;;15.73;86.42;94252.70;1822950;78;20946;-56
2021/07/31 00:53:38;;;;;;;13.18;8.40;;;;;;;15.71;86.42;94256.60;1822985;78;20986;-56
2021/07/31 00:56:05;;;;;;;18.73;9.73;;;;;;;15.71;86.53;94257.98;1822834;78;21138;-56
2021/07/31 00:58:32;;;;;;;29.40;10.60;;;;;;;15.68;86.56;94255.43;1822722;78;20942;-57
2021/07/31 01:01:01;;;;;;;19.17;10.28;;;;;;;15.64;86.86;94250.12;1770141;78;20951;-56
2021/07/31 01:03:30;;;;;;;23.45;10.03;;;;;;;15.62;87.08;94248.47;1822466;78;20962;-57
2021/07/31 01:05:56;;;;;;;23.45;9.83;;;;;;;15.61;87.21;94251.72;1822886;78;21018;-56
2021/07/31 01:08:23;;;;;;;15.03;8.60;;;;;;;15.61;87.20;94253.88;1822995;78;21800;-56
2021/07/31 01:10:50;;;;;;;13.93;8.70;;;;;;;15.63;86.85;94253.37;1822822;78;20987;-56
2021/07/31 01:13:19;;;;;;;15.72;9.60;;;;;;;15.58;86.73;94246.52;1822839;78;20982;-56
2021/07/31 01:16:01;;;;;;;14.78;8.85;;;;;;;15.55;86.71;94249.54;1816857;78;21010;-56
2021/07/31 01:18:28;;;;;;;14.80;8.45;;;;;;;15.50;86.77;94246.06;1790222;80;22171;-56
2021/07/31 01:20:55;;;;;;;16.55;9.60;;;;;;;15.45;86.76;94244.02;1789991;80;21149;-56
2021/07/31 01:23:22;;;;;;;15.65;9.25;;;;;;;15.43;87.04;94244.52;1790079;80;20932;-56
2021/07/31 01:25:51;;;;;;;11.28;8.30;;;;;;;15.42;87.24;94249.16;1790658;80;21393;-57
2021/07/31 01:28:18;;;;;;;11.97;8.73;;;;;;;15.39;87.31;94249.50;1790606;80;20952;-56
2021/07/31 01:30:46;;;;;;;21.68;10.05;;;;;;;15.36;87.24;94246.33;1790404;80;21059;-56
2021/07/31 01:33:12;;;;;;;11.00;8.23;;;;;;;15.33;87.50;94243.80;1790492;80;21144;-57
2021/07/31 01:35:39;;;;;;;15.20;8.30;;;;;;;15.30;87.62;94240.59;1790540;80;20952;-56
2021/07/31 01:38:08;;;;;;;10.93;7.72;;;;;;;15.27;87.81;94245.09;1789040;80;20943;-56
2021/07/31 01:40:34;;;;;;;14.78;8.48;;;;;;;15.30;87.84;94252.45;1790221;80;20981;-56
2021/07/31 01:43:02;;;;;;;12.68;8.28;;;;;;;15.35;87.68;94256.53;1761750;80;21035;-57
2021/07/31 01:45:29;;;;;;;9.08;7.65;;;;;;;15.38;87.40;94257.69;1787187;80;21875;-56
2021/07/31 01:47:56;;;;;;;11.40;8.33;;;;;;;15.40;87.13;94248.25;1757303;80;21004;-56
2021/07/31 01:50:24;;;;;;;12.37;7.87;;;;;;;15.39;87.03;94252.27;1787334;80;21023;-56
2021/07/31 01:52:52;;;;;;;10.43;8.03;;;;;;;15.40;86.81;94244.09;1787238;80;21066;-57
2021/07/31 01:55:21;;;;;;;19.15;8.40;;;;;;;15.40;87.01;94252.41;1787517;80;21424;-55
2021/07/31 01:57:50;;;;;;;15.70;7.90;;;;;;;15.40;86.92;94260.72;1786479;80;21161;-56
2021/07/31 02:00:18;;;;;;;8.98;7.45;;;;;;;15.36;86.88;94250.48;1779231;79;21470;-57
2021/07/31 02:03:04;;;;;;;11.65;7.10;;;;;;;15.33;86.69;94252.85;1777572;80;21022;-56
2021/07/31 02:05:33;;;;;;;11.55;6.72;;;;;;;15.29;86.55;94252.31;1777190;80;21058;-55
2021/07/31 02:08:00;;;;;;;10.50;7.30;;;;;;;15.29;86.44;94255.70;1777929;80;20955;-56
2021/07/31 02:10:28;;;;;;;10.90;7.50;;;;;;;15.27;86.15;94254.79;1777884;80;21086;-55
2021/07/31 02:12:56;;;;;;;9.40;6.58;;;;;;;15.25;86.17;94266.99;1727858;81;21049;-55
2021/07/31 02:15:24;;;;;;;13.93;7.20;;;;;;;15.23;86.19;94263.95;1786649;80;20994;-55
2021/07/31 02:17:52;;;;;;;12.00;7.58;;;;;;;15.25;86.13;94262.84;1769113;81;20982;-56
2021/07/31 02:20:21;;;;;;;9.30;6.95;;;;;;;15.25;86.05;94262.84;1755248;81;21407;-58
2021/07/31 02:22:51;;;;;;;10.53;6.55;;;;;;;15.23;85.92;94263.95;1785503;80;21148;-59
2021/07/31 02:25:39;;;;;;;8.40;6.03;;;;;;;15.21;85.81;94258.11;1769258;81;20991;-56
2021/07/31 02:28:24;;;;;;;7.62;6.37;;;;;;;15.17;85.65;94265.88;1755445;81;21520;-56
2021/07/31 02:30:51;;;;;;;9.38;6.83;;;;;;;15.17;85.68;94272.81;1786422;80;20981;-56
2021/07/31 02:33:17;;;;;;;10.88;6.87;;;;;;;15.13;85.37;94280.58;1768951;81;20999;-56
2021/07/31 02:35:44;;;;;;;10.25;7.17;;;;;;;15.04;85.41;94272.41;1755737;81;21778;-56
2021/07/31 02:38:12;;;;;;;9.35;6.67;;;;;;;14.98;85.62;94279.91;1763569;80;21036;-56
2021/07/31 02:40:39;;;;;;;12.55;8.03;;;;;;;14.95;85.77;94283.65;1787162;79;21006;-56
2021/07/31 02:43:06;;;;;;;10.05;7.33;;;;;;;14.94;86.27;94283.52;1778166;79;21003;-59
2021/07/31 02:45:36;;;;;;;14.53;8.03;;;;;;;14.96;87.02;94287.20;1778373;80;21510;-57
2021/07/31 02:48:06;;;;;;;17.90;7.75;;;;;;;14.94;86.92;94287.67;1778645;80;21156;-56
2021/07/31 02:50:35;;;;;;;11.90;8.40;;;;;;;14.89;87.15;94284.22;1778805;80;21506;-55
2021/07/31 02:53:09;;;;;;;9.25;6.75;;;;;;;14.86;87.55;94290.73;1777006;80;20987;-56
2021/07/31 02:55:37;;;;;;;9.88;7.75;;;;;;;14.83;87.33;94295.83;1778514;80;20979;-56
2021/07/31 02:58:04;;;;;;;9.73;7.08;;;;;;;14.79;87.30;94297.31;1755442;81;20985;-56
2021/07/31 03:00:30;;;;;;;8.50;6.55;;;;;;;14.75;87.09;94293.36;1786576;80;21552;-56
2021/07/31 03:02:57;;;;;;;16.30;7.53;;;;;;;14.73;87.20;94294.47;1771983;81;20999;-56
2021/07/31 03:05:24;;;;;;;13.40;7.72;;;;;;;14.74;87.11;94289.06;1755625;81;21037;-55
2021/07/31 03:07:52;;;;;;;12.43;7.45;;;;;;;14.75;87.18;94297.51;1785385;80;21005;-55
2021/07/31 03:10:19;;;;;;;11.73;7.70;;;;;;;14.78;87.31;94296.53;1772580;81;20935;-55
2021/07/31 03:12:47;;;;;;;9.30;6.87;;;;;;;14.79;87.31;94307.75;1755626;81;21127;-56
2021/07/31 03:15:15;;;;;;;14.28;7.95;;;;;;;14.82;87.15;94301.88;1786528;80;21529;-56
2021/07/31 03:17:42;;;;;;;26.93;8.28;;;;;;;14.84;87.03;94298.73;1772366;81;20958;-55
2021/07/31 03:20:11;;;;;;;14.20;6.92;;;;;;;14.87;86.81;94302.56;1755460;81;21060;-56
2021/07/31 03:22:39;;;;;;;17.95;7.87;;;;;;;14.87;86.92;94304.72;1786157;80;20969;-56
2021/07/31 03:25:10;;;;;;;13.05;7.30;;;;;;;14.89;86.81;94302.22;1790093;79;21098;-56
2021/07/31 03:27:37;;;;;;;11.63;7.47;;;;;;;14.88;86.75;94307.63;1796252;79;21064;-56
2021/07/31 03:30:13;;;;;;;11.33;6.60;;;;;;;14.88;86.57;94302.08;1828974;78;20966;-56
2021/07/31 03:32:41;;;;;;;11.28;7.10;;;;;;;14.89;86.62;94306.38;1828300;78;20966;-56
2021/07/31 03:35:09;;;;;;;13.98;7.97;;;;;;;14.84;86.62;94308.44;1828884;78;20931;-56
2021/07/31 03:37:38;;;;;;;12.28;8.08;;;;;;;14.82;86.85;94309.55;1825944;78;21160;-57
2021/07/31 03:40:07;;;;;;;12.68;7.33;;;;;;;14.85;87.06;94311.34;1828400;78;21079;-56
2021/07/31 03:42:35;;;;;;;9.93;7.83;;;;;;;14.89;86.94;94309.75;1816257;79;21479;-56
2021/07/31 03:45:03;;;;;;;12.93;6.78;;;;;;;14.94;86.86;94311.22;1814693;78;20991;-56
2021/07/31 03:47:30;;;;;;;13.38;7.03;;;;;;;15.01;86.93;94312.17;1814147;79;20927;-56
2021/07/31 03:50:00;;;;;;;10.68;7.33;;;;;;;15.09;86.70;94302.81;1814137;79;21167;-56
2021/07/31 03:52:27;;;;;;;8.10;7.15;;;;;;;15.16;86.58;94310.72;1789367;79;20962;-56
2021/07/31 03:54:56;;;;;;;10.50;6.55;;;;;;;15.24;86.25;94304.88;1820800;78;20974;-56
2021/07/31 03:57:22;;;;;;;9.88;6.80;;;;;;;15.27;85.78;94308.83;1820535;78;20970;-56
2021/07/31 03:59:49;;;;;;;7.42;6.62;;;;;;;15.27;85.55;94307.45;1820566;78;21490;-58
2021/07/31 04:02:17;;;;;;;12.20;7.17;;;;;;;15.29;85.63;94302.20;1820175;78;21138;-56
2021/07/31 04:04:43;;;;;;;13.53;7.80;;;;;;;15.34;85.54;94307.04;1820490;78;21010;-55
2021/07/31 04:07:12;;;;;;;13.32;8.03;;;;;;;15.34;85.65;94297.34;1804798;78;20931;-56
2021/07/31 04:09:57;;;;;;;14.83;7.97;;;;;;;15.39;85.71;94304.94;1790707;80;21031;-56
2021/07/31 04:12:38;;;;;;;10.53;7.33;;;;;;;15.43;85.59;94308.89;1786740;80;20932;-56
2021/07/31 04:15:13;;;;;;;12.55;8.10;;;;;;;15.44;85.61;94311.19;1730681;80;21538;-58
2021/07/31 04:17:41;;;;;;;11.60;8.98;;;;;;;15.43;85.56;94304.12;1790272;80;20984;-56
2021/07/31 04:20:09;;;;;;;15.30;8.65;;;;;;;15.40;85.66;94307.84;1790513;80;20987;-57
2021/07/31 04:22:36;;;;;;;14.85;8.40;;;;;;;15.43;85.69;94308.89;1763632;80;20991;-57
2021/07/31 04:25:05;;;;;;;21.95;10.13;;;;;;;15.43;85.61;94314.44;1790477;80;21062;-56
2021/07/31 04:27:32;;;;;;;41.98;18.95;;;;;;;15.40;85.82;94314.78;1790091;79;21122;-57
2021/07/31 04:30:03;;;;;;;29.52;15.95;;;;;;;15.43;86.00;94312.44;1790273;79;21408;-56
2021/07/31 04:32:31;;;;;;;27.37;13.60;;;;;;;15.46;85.82;94310.69;1790653;80;32523;-56
2021/07/31 04:34:57;;;;;;;20.75;11.22;;;;;;;15.52;85.67;94315.68;1790252;80;20972;-56
2021/07/31 04:37:24;;;;;;;25.45;13.80;;;;;;;15.54;85.43;94306.98;1790331;80;21519;-56
2021/07/31 04:39:51;;;;;;;23.77;14.80;;;;;;;15.58;85.50;94297.82;1790452;80;21143;-56
2021/07/31 04:42:17;;;;;;;33.40;17.05;;;;;;;15.67;85.71;94290.73;1789898;80;21035;-57
2021/07/31 04:44:44;;;;;;;25.37;15.58;;;;;;;15.81;85.63;94288.47;1790286;80;21138;-55
2021/07/31 04:47:12;;;;;;;29.85;17.70;;;;;;;15.96;85.25;94293.88;1791106;80;20956;-56
2021/07/31 04:49:40;;;;;;;35.50;18.48;;;;;;;16.07;84.72;94293.34;1789039;80;20974;-56
2021/07/31 04:52:08;;;;;;;24.00;15.20;;;;;;;16.17;84.12;94285.59;1787580;80;21133;-56
2021/07/31 04:54:40;;;;;;;22.62;13.50;;;;;;;16.24;83.70;94280.34;1787176;80;20974;-55
2021/07/31 04:57:09;;;;;;;20.08;14.05;;;;;;;16.30;83.51;94283.91;1787163;80;21057;-56
2021/07/31 04:59:35;;;;;;;21.10;13.13;;;;;;;16.41;83.50;94286.19;1831761;78;20982;-56
2021/07/31 05:02:03;;;;;;;24.27;14.95;;;;;;;16.57;82.94;94290.30;1831569;78;21013;-56
2021/07/31 05:04:31;;;;;;;24.27;14.00;;;;;;;16.67;82.22;94288.22;1792177;80;21144;-55
2021/07/31 05:06:59;;;;;;;24.55;13.15;;;;;;;16.76;81.29;94287.25;1792632;80;20959;-55
2021/07/31 05:09:27;;;;;;;17.80;12.33;;;;;;;16.80;80.64;94284.99;1792564;80;20994;-57
2021/07/31 05:11:54;;;;;;;25.70;12.58;;;;;;;16.81;80.22;94288.67;1792674;79;20998;-57
2021/07/31 05:14:20;;;;;;;28.07;13.35;;;;;;;16.84;80.07;94285.51;1792324;80;21392;-57
2021/07/31 05:16:49;;;;;;;29.95;12.53;;;;;;;16.85;79.88;94290.58;1792393;80;20863;-59
2021/07/31 05:19:15;;;;;;;34.63;13.25;;;;;;;16.85;80.00;94287.80;1792216;79;20986;-57
2021/07/31 05:21:42;;;;;;;22.45;11.57;;;;;;;16.87;80.01;94292.23;1792247;80;21443;-57
2021/07/31 05:24:09;;;;;;;29.63;14.13;;;;;;;16.91;79.85;94285.80;1791995;80;21823;-57
2021/07/31 05:26:39;;;;;;;34.78;15.80;;;;;;;16.95;79.63;94289.09;1792478;80;20982;-57
2021/07/31 05:29:06;;;;;;;32.17;13.75;;;;;;;17.01;79.41;94287.73;1792566;80;21148;-55
2021/07/31 05:31:34;;;;;;;29.15;13.93;;;;;;;17.08;79.49;94288.02;1792403;79;21435;-56
2021/07/31 05:34:02;;;;;;;25.72;13.70;;;;;;;17.19;79.26;94286.68;1797900;79;21633;-56
2021/07/31 05:36:34;;;;;;;30.08;12.93;;;;;;;17.30;78.88;94284.56;1798625;79;20995;-56
2021/07/31 05:38:59;;;;;;;23.92;13.43;;;;;;;17.42;78.61;94283.37;1798746;79;20940;-57
2021/07/31 05:41:26;;;;;;;26.97;12.23;;;;;;;17.54;78.49;94282.11;1799010;79;21079;-57
2021/07/31 05:43:53;;;;;;;18.30;11.28;;;;;;;17.67;78.26;94289.35;1798669;79;21396;-58
2021/07/31 05:46:19;;;;;;;19.23;10.25;;;;;;;17.81;77.84;94282.16;1798947;79;20951;-56
2021/07/31 05:48:46;;;;;;;16.57;9.88;;;;;;;17.92;76.95;94282.80;1799099;79;20988;-57
2021/07/31 05:51:16;;;;;;;16.35;10.13;;;;;;;18.01;75.80;94281.91;1799056;79;21089;-56
2021/07/31 05:53:43;;;;;;;21.48;10.05;;;;;;;18.10;75.21;94283.06;1799061;79;21099;-58
2021/07/31 05:56:11;;;;;;;21.20;10.25;;;;;;;18.21;75.00;94269.12;1798634;79;20988;-57
2021/07/31 05:58:38;;;;;;;19.82;10.80;;;;;;;18.33;74.58;94269.27;1798788;79;20991;-57
2021/07/31 06:01:06;;;;;;;20.25;9.98;;;;;;;18.43;74.06;94273.32;1798749;79;20985;-58
2021/07/31 06:03:35;;;;;;;24.45;9.25;;;;;;;18.52;73.93;94266.07;1798711;79;20975;-59
2021/07/31 06:06:02;;;;;;;23.32;11.05;;;;;;;18.58;73.67;94263.41;1767527;80;21295;-57
2021/07/31 06:08:29;;;;;;;14.78;9.55;;;;;;;18.61;73.35;94260.98;1799243;79;20940;-56
2021/07/31 06:11:06;;;;;;;26.87;11.75;;;;;;;18.66;73.40;94261.59;1799340;79;21024;-57
2021/07/31 06:13:34;;;;;;;23.45;10.53;;;;;;;18.74;73.14;94256.26;1799188;79;21020;-57
2021/07/31 06:16:01;;;;;;;17.50;10.13;;;;;;;18.85;72.69;94261.16;1824266;78;20930;-62
2021/07/31 06:18:29;;;;;;;32.42;12.15;;;;;;;18.94;72.67;94264.30;1832290;77;21304;-57
2021/07/31 06:20:55;;;;;;;21.52;10.98;;;;;;;19.04;72.40;94257.92;1831677;77;21010;-56
2021/07/31 06:23:22;;;;;;;20.27;10.05;;;;;;;19.16;71.58;94253.08;1831361;78;20927;-58
2021/07/31 06:25:49;;;;;;;16.73;9.68;;;;;;;19.25;70.97;94248.61;1832138;78;20938;-57
2021/07/31 06:28:16;;;;;;;23.73;10.95;;;;;;;19.38;70.64;94239.78;1832036;78;20978;-58
2021/07/31 06:30:44;;;;;;;14.43;8.58;;;;;;;19.52;70.70;94235.89;1831734;78;21109;-57
2021/07/31 06:33:12;;;;;;;21.40;8.95;;;;;;;19.66;70.11;94236.19;1831871;78;21407;-58
2021/07/31 06:35:39;;;;;;;11.57;9.00;;;;;;;19.76;69.64;94234.58;1831698;77;20930;-57
2021/07/31 06:38:06;;;;;;;14.25;7.60;;;;;;;19.80;68.85;94228.10;1831900;77;21073;-57
2021/07/31 06:40:33;;;;;;;14.50;8.25;;;;;;;19.87;68.45;94226.13;1814119;78;20914;-58
2021/07/31 06:42:59;;;;;;;19.95;8.55;;;;;;;19.97;68.04;94232.92;1764058;81;21114;-56
2021/07/31 06:45:27;;;;;;;17.10;8.98;;;;;;;20.05;68.19;94228.30;1762751;81;21068;-58
2021/07/31 06:47:53;;;;;;;14.53;10.13;;;;;;;20.17;67.89;94225.55;1761271;81;21076;-58
2021/07/31 06:50:20;;;;;;;17.32;8.98;;;;;;;20.30;67.57;94227.05;1761250;81;21031;-59
2021/07/31 06:52:47;;;;;;;16.32;7.55;;;;;;;20.45;67.47;94221.83;1761437;81;21473;-58
2021/07/31 06:55:14;;;;;;;25.12;8.95;;;;;;;20.60;67.16;94216.59;1760971;81;21159;-57
2021/07/31 06:57:40;;;;;;;20.65;9.55;;;;;;;20.72;66.36;94217.34;1773184;80;21037;-58
2021/07/31 07:00:09;;;;;;;13.62;6.97;;;;;;;20.82;65.54;94217.73;1796175;80;21231;-57
2021/07/31 07:02:36;;;;;;;18.20;8.25;;;;;;;20.90;65.40;94213.12;1795863;79;21458;-58
2021/07/31 07:05:05;;;;;;;17.27;7.92;;;;;;;20.99;65.10;94208.54;1795837;80;21025;-58
2021/07/31 07:07:31;;;;;;;14.68;7.75;;;;;;;21.09;63.94;94202.70;1795930;80;21776;-57
2021/07/31 07:09:58;;;;;;;11.40;6.78;;;;;;;21.21;63.50;94205.45;1795583;80;20938;-58
2021/07/31 07:12:25;;;;;;;19.05;8.05;;;;;;;21.33;62.76;94198.44;1795950;79;20978;-58
2021/07/31 07:14:52;;;;;;;13.70;8.15;;;;;;;21.43;62.26;94197.52;1755370;80;20950;-57
2021/07/31 07:17:19;;;;;;;9.45;6.65;;;;;;;21.56;61.86;94198.22;1717560;82;20957;-59
2021/07/31 07:19:46;;;;;;;10.05;6.35;;;;;;;21.70;60.63;94203.40;1755412;81;21121;-58
2021/07/31 07:22:15;;;;;;;15.53;6.17;;;;;;;21.82;60.25;94192.13;1717153;82;21494;-60
2021/07/31 07:24:42;;;;;;;9.03;6.08;;;;;;;21.94;60.27;94193.46;1755103;81;21045;-58
2021/07/31 07:27:08;;;;;;;8.50;6.08;;;;;;;22.09;60.17;94193.06;1717756;83;21058;-58
2021/07/31 07:29:35;;;;;;;8.23;5.83;;;;;;;22.23;59.73;94184.03;1755465;80;20977;-57
2021/07/31 07:32:06;;;;;;;9.28;6.70;;;;;;;22.40;58.69;94185.30;1717765;83;21438;-58
2021/07/31 07:34:38;;;;;;;14.20;6.40;;;;;;;22.51;57.78;94176.66;1755412;81;20989;-58
2021/07/31 07:37:05;;;;;;;11.95;6.45;;;;;;;22.64;57.13;94176.68;1727087;81;21044;-58
2021/07/31 07:39:32;;;;;;;9.70;6.62;;;;;;;22.76;57.03;94177.22;1720119;80;20945;-59
2021/07/31 07:41:59;;;;;;;7.15;6.22;;;;;;;22.88;57.43;94172.91;1805455;78;21039;-57
2021/07/31 07:44:26;;;;;;;15.23;6.90;;;;;;;22.99;57.31;94176.23;1777000;79;21112;-58
2021/07/31 07:46:52;;;;;;;8.68;6.72;;;;;;;23.12;57.01;94162.86;1806319;79;21357;-58
2021/07/31 07:49:19;;;;;;;10.48;6.65;;;;;;;23.23;56.78;94162.63;1806623;79;21416;-58
2021/07/31 07:51:46;;;;;;;9.23;6.78;;;;;;;23.33;56.47;94158.83;1806694;79;20974;-59
2021/07/31 07:54:13;;;;;;;12.95;6.97;;;;;;;23.44;55.75;94154.37;1806548;78;21495;-58
2021/07/31 07:56:39;;;;;;;7.92;5.95;;;;;;;23.58;56.04;94159.30;1806162;79;21788;-57
2021/07/31 07:59:06;;;;;;;7.62;5.45;;;;;;;23.73;55.73;94155.98;1806966;79;20995;-58
2021/07/31 08:01:34;;;;;;;8.50;5.67;;;;;;;23.93;55.99;94149.65;1806285;79;20990;-59
2021/07/31 08:04:01;;;;;;;6.00;5.40;;;;;;;24.09;56.10;94147.84;1806104;79;20971;-59
2021/07/31 08:06:28;;;;;;;7.90;6.10;;;;;;;24.22;55.71;94147.01;1806418;79;20924;-58
2021/07/31 08:08:56;;;;;;;38.78;8.38;;;;;;;24.36;55.33;94148.44;1806409;79;20995;-57
2021/07/31 08:11:23;;;;;;;17.48;7.12;;;;;;;24.49;55.05;94149.73;1806503;79;21014;-58
2021/07/31 08:13:52;;;;;;;14.90;6.05;;;;;;;24.63;55.75;94152.59;1806500;79;20938;-57
2021/07/31 08:16:19;;;;;;;11.45;6.17;;;;;;;24.76;55.73;94141.97;1806195;79;20963;-59
2021/07/31 08:18:48;;;;;;;7.78;5.97;;;;;;;24.91;55.38;94141.33;1806143;79;20963;-58
2021/07/31 08:21:15;;;;;;;11.75;6.28;;;;;;;25.05;56.13;94138.47;1806063;79;22315;-58
2021/07/31 08:23:43;;;;;;;15.28;6.42;;;;;;;25.20;55.56;94141.38;1803929;79;20928;-59
2021/07/31 08:26:15;;;;;;;14.83;7.28;;;;;;;25.32;55.40;94136.27;1809424;79;20931;-57
2021/07/31 08:28:43;;;;;;;7.67;5.97;;;;;;;25.49;55.69;94134.37;1829276;78;21004;-58
2021/07/31 08:31:11;;;;;;;8.68;5.40;;;;;;;25.66;55.45;94136.02;1827986;78;21172;-58
2021/07/31 08:33:38;;;;;;;7.35;5.92;;;;;;;25.79;54.70;94140.06;1828447;77;21018;-57
2021/07/31 08:36:06;;;;;;;7.87;5.67;;;;;;;25.88;53.73;94135.33;1828414;78;20959;-59
2021/07/31 08:38:32;;;;;;;8.48;5.75;;;;;;;25.99;55.07;94131.48;1828587;78;20954;-59
2021/07/31 08:41:01;;;;;;;9.35;5.67;;;;;;;26.11;54.57;94131.23;1816193;78;21043;-59
2021/07/31 08:43:30;;;;;;;8.43;5.30;;;;;;;26.23;55.48;94130.28;1806072;79;21043;-58
2021/07/31 08:45:57;;;;;;;9.58;5.35;;;;;;;26.38;53.84;94135.93;1806142;79;21789;-58
2021/07/31 08:48:28;;;;;;;6.95;5.92;;;;;;;26.51;52.79;94128.69;1806506;79;21048;-57
2021/07/31 08:51:02;;;;;;;13.25;6.25;;;;;;;26.65;53.80;94127.17;1806666;79;20998;-57
2021/07/31 08:53:30;;;;;;;10.13;5.87;;;;;;;26.82;53.30;94132.98;1806664;79;21402;-58
2021/07/31 08:55:58;;;;;;;6.30;4.90;;;;;;;26.98;51.95;94129.45;1806425;79;21045;-57
2021/07/31 08:58:25;;;;;;;9.13;5.80;;;;;;;27.11;51.17;94122.96;1806176;79;21481;-59
2021/07/31 09:00:53;;;;;;;8.90;5.60;;;;;;;27.21;51.70;94111.14;1806597;78;21013;-58
2021/07/31 09:03:20;;;;;;;6.53;5.58;;;;;;;27.32;50.60;94117.80;1806266;79;20969;-57
2021/07/31 09:05:48;;;;;;;7.12;4.95;;;;;;;27.46;51.54;94113.41;1813568;78;21029;-58
2021/07/31 09:08:16;;;;;;;8.40;4.85;;;;;;;27.59;50.71;94113.12;1829060;78;21498;-60
2021/07/31 09:10:44;;;;;;;6.78;4.92;;;;;;;27.73;50.98;94110.16;1828879;77;21391;-57
2021/07/31 09:13:16;;;;;;;5.83;4.42;;;;;;;27.86;48.71;94110.55;1810415;78;20943;-59
2021/07/31 09:15:47;;;;;;;11.10;4.65;;;;;;;27.98;49.01;94105.27;1828699;78;20998;-58
2021/07/31 09:18:32;;;;;;;4.87;4.12;;;;;;;28.11;46.26;94100.76;1828809;78;21505;-57
2021/07/31 09:21:16;;;;;;;5.95;4.20;;;;;;;28.24;45.17;94104.72;1810464;78;20997;-59
2021/07/31 09:23:52;;;;;;;5.67;4.42;;;;;;;28.41;43.33;94101.28;1828036;77;21157;-58
2021/07/31 09:26:31;;;;;;;5.25;4.08;;;;;;;28.54;42.28;94100.98;1828515;78;20929;-57
2021/07/31 09:29:06;;;;;;;5.53;4.78;;;;;;;28.64;41.16;94092.59;1828877;78;21013;-57
2021/07/31 09:31:33;;;;;;;5.65;4.35;;;;;;;28.72;41.77;94087.59;1828746;78;21496;-58
2021/07/31 09:34:02;;;;;;;5.08;4.15;;;;;;;28.83;41.41;94087.88;1773041;78;20923;-59
2021/07/31 09:36:42;;;;;;;5.92;4.53;;;;;;;28.91;40.70;94093.49;1828519;78;21123;-57
2021/07/31 09:39:10;;;;;;;7.97;4.50;;;;;;;29.02;41.34;94091.56;1828439;78;21407;-59
2021/07/31 09:41:41;;;;;;;4.30;3.90;;;;;;;29.10;39.83;94082.32;1787286;78;21026;-57
2021/07/31 09:44:13;;;;;;;9.40;3.77;;;;;;;29.17;39.76;94077.22;1760861;81;20938;-58
2021/07/31 09:46:51;;;;;;;5.80;3.85;;;;;;;29.25;38.85;94073.62;1776208;79;20934;-57
2021/07/31 09:49:23;;;;;;;5.17;3.75;;;;;;;29.33;39.95;94071.45;1813070;78;21149;-59
2021/07/31 09:51:52;;;;;;;4.45;4.05;;;;;;;29.42;40.60;94060.18;1825994;78;20926;-57
2021/07/31 09:54:21;;;;;;;7.28;4.67;;;;;;;29.50;40.31;94060.11;1826209;78;21043;-58
2021/07/31 09:56:50;;;;;;;5.47;4.40;;;;;;;29.57;38.70;94054.34;1824864;78;21044;-59
2021/07/31 09:59:21;;;;;;;7.37;4.42;;;;;;;29.64;40.00;94066.23;1825663;78;21609;-59
2021/07/31 10:01:57;;;;;;;8.38;4.20;;;;;;;29.71;39.76;94054.70;1825698;78;21131;-59
2021/07/31 10:04:24;;;;;;;6.87;4.33;;;;;;;29.80;38.31;94055.41;1825558;78;21033;-58
2021/07/31 10:06:52;;;;;;;5.87;4.20;;;;;;;29.86;36.83;94045.98;1826016;78;20904;-58
2021/07/31 10:09:20;;;;;;;6.70;4.25;;;;;;;29.92;37.77;94045.10;1825960;78;21033;-58
2021/07/31 10:11:47;;;;;;;22.55;5.10;;;;;;;30.03;38.30;94046.66;1826223;78;21037;-57
2021/07/31 10:14:14;;;;;;;5.50;4.03;;;;;;;30.12;37.27;94049.54;1826170;78;21111;-58
2021/07/31 10:16:47;;;;;;;5.15;4.20;;;;;;;30.25;38.51;94049.14;1825717;78;20913;-60
2021/07/31 10:19:15;;;;;;;4.15;3.52;;;;;;;30.41;38.13;94046.13;1825890;78;20970;-57
2021/07/31 10:22:00;;;;;;;8.95;4.12;;;;;;;30.56;37.48;94038.00;1825778;78;20927;-59
2021/07/31 10:24:28;;;;;;;4.35;3.60;;;;;;;30.72;37.20;94042.83;1825770;78;21576;-58
2021/07/31 10:27:22;;;;;;;7.92;4.12;;;;;;;30.97;38.16;94047.58;1826142;77;21143;-59
2021/07/31 10:29:51;;;;;;;9.53;5.05;;;;;;;31.19;35.22;94035.03;1826192;78;21033;-58
2021/07/31 10:32:32;;;;;;;4.75;3.75;;;;;;;31.45;34.30;94034.09;1810285;78;20977;-61
2021/07/31 10:35:05;;;;;;;6.92;5.05;;;;;;;31.70;33.37;94027.42;1807434;79;21390;-59
2021/07/31 10:37:39;;;;;;;8.10;4.22;;;;;;;31.97;35.56;94023.64;1807426;79;20942;-58
2021/07/31 10:40:09;;;;;;;12.07;4.30;;;;;;;32.27;34.77;94024.38;1807372;78;21106;-63
2021/07/31 10:43:01;;;;;;;4.95;3.62;;;;;;;32.53;33.71;94023.31;1806981;79;21004;-60
2021/07/31 10:45:30;;;;;;;4.72;4.12;;;;;;;32.75;30.92;94022.02;1807176;79;20966;-57
2021/07/31 10:48:06;;;;;;;5.28;3.70;;;;;;;32.87;32.60;94021.39;1805957;78;21060;-57
2021/07/31 10:50:35;;;;;;;7.00;4.15;;;;;;;33.08;32.04;94015.67;1806783;79;20973;-59
2021/07/31 10:53:12;;;;;;;6.15;4.25;;;;;;;33.25;32.29;94017.59;1806236;79;21166;-60
2021/07/31 10:55:48;;;;;;;4.08;3.40;;;;;;;33.52;33.41;94002.92;1806598;78;20991;-58
2021/07/31 10:58:21;;;;;;;9.45;3.75;;;;;;;33.87;33.13;94003.77;1805996;79;21453;-58
2021/07/31 11:01:12;;;;;;;4.75;3.65;;;;;;;34.14;30.40;94008.38;1806264;78;20946;-61
2021/07/31 11:03:40;;;;;;;6.35;3.60;;;;;;;34.32;29.43;94003.81;1805037;78;20954;-58
2021/07/31 11:06:07;;;;;;;5.58;3.85;;;;;;;34.44;28.94;94001.70;1806384;79;21101;-59
2021/07/31 11:08:52;;;;;;;5.75;3.87;;;;;;;34.49;29.63;93998.41;1806163;79;21001;-59
2021/07/31 11:11:25;;;;;;;5.80;3.52;;;;;;;34.39;29.22;94001.41;1796640;79;21393;-58
2021/07/31 11:13:53;;;;;;;7.17;4.20;;;;;;;34.40;29.26;93998.60;1806434;78;20997;-59
2021/07/31 11:16:22;;;;;;;11.97;4.25;;;;;;;34.14;29.49;93995.52;1803477;79;21036;-57
2021/07/31 11:18:51;;;;;;;6.58;3.98;;;;;;;34.15;29.32;93996.28;1805526;79;21188;-57
2021/07/31 11:21:22;;;;;;;8.73;3.83;;;;;;;34.28;29.68;93993.56;1806102;78;21005;-58
2021/07/31 11:23:58;;;;;;;;;;;;;;;34.49;29.27;93992.00;1808300;78;20976;-58
2021/07/31 11:26:39;;;;;;;5.15;3.25;;;;;;;34.82;28.79;93986.87;1805991;79;20461;-59
2021/07/31 11:29:25;;;;;;;5.67;3.60;;;;;;;34.97;28.25;93988.44;1805978;78;21013;-59
2021/07/31 11:32:12;;;;;;;5.17;3.83;;;;;;;35.24;28.28;93985.07;1806690;79;21141;-58
2021/07/31 11:34:45;;;;;;;8.35;3.58;;;;;;;35.55;28.09;93983.99;1806174;79;20926;-59
2021/07/31 11:37:15;;;;;;;4.60;3.40;;;;;;;35.99;27.21;93980.06;1806075;79;21075;-57